Time;durP1;ratioP1;P1;durP2;ratioP2;P2;SDS_P1;SDS_P2;PMS_P1;PMS_P2;Temp;Humidity;BMP_temperature;BMP_pressure;BME280_temperature;BME280_humidity;BME280_pressure;Samples;Min_cycle;Max_cycle;Signal;HPM_P1;HPM_P2
2022/11/13 00:00:20;;;;;;;;;;;5.20;99.90;;;;;;5097544;28;19908;-67
2022/11/13 00:02:45;;;;;;;;;;;5.20;99.90;;;;;;5097506;28;19915;-66
2022/11/13 00:05:11;;;;;;;;;;;5.20;99.90;;;;;;5097449;28;20361;-67
2022/11/13 00:07:37;;;;;;;;;;;5.20;99.90;;;;;;5097687;28;19915;-67
2022/11/13 00:10:02;;;;;;;;;;;5.20;99.90;;;;;;5097280;28;19955;-67
2022/11/13 00:12:28;;;;;;;;;;;5.20;99.90;;;;;;5097365;28;19961;-67
2022/11/13 00:14:54;;;;;;;;;;;5.30;99.90;;;;;;5097236;28;19953;-67
2022/11/13 00:17:19;;;;;;;;;;;5.20;99.90;;;;;;5097202;28;19908;-67
2022/11/13 00:19:44;;;;;;;;;;;5.20;99.90;;;;;;5097150;28;20014;-67
2022/11/13 00:22:10;;;;;;;;;;;5.20;99.90;;;;;;5097088;28;19919;-67
2022/11/13 00:24:35;;;;;;;;;;;5.10;99.90;;;;;;5078979;28;19912;-67
2022/11/13 00:27:01;;;;;;;;;;;5.20;99.90;;;;;;5096998;28;20388;-67
2022/11/13 00:29:26;;;;;;;;;;;5.20;99.90;;;;;;5096785;28;19954;-67
2022/11/13 00:31:52;;;;;;;;;;;5.10;99.90;;;;;;5097113;28;19919;-67
2022/11/13 00:34:17;;;;;;;;;;;5.20;99.90;;;;;;5097287;28;19908;-67
2022/11/13 00:36:43;;;;;;;;;;;5.10;99.90;;;;;;5078764;28;19912;-67
2022/11/13 00:39:09;;;;;;;;;;;5.10;99.90;;;;;;5096807;28;19922;-67
2022/11/13 00:41:34;;;;;;;;;;;5.10;99.90;;;;;;5078661;28;19912;-67
2022/11/13 00:44:00;;;;;;;;;;;5.00;99.90;;;;;;5096722;28;19912;-67
2022/11/13 00:46:25;;;;;;;;;;;5.00;99.90;;;;;;5096933;28;19912;-67
2022/11/13 00:48:51;;;;;;;;;;;5.00;99.90;;;;;;5096671;28;19943;-67
2022/11/13 00:51:18;;;;;;;;;;;4.90;99.90;;;;;;5096761;28;19918;-67
2022/11/13 00:53:43;;;;;;;;;;;4.90;99.90;;;;;;5096460;28;19916;-67
2022/11/13 00:56:09;;;;;;;;;;;5.00;99.90;;;;;;5096722;28;19960;-67
2022/11/13 00:58:34;;;;;;;;;;;5.00;99.90;;;;;;5096436;28;19976;-67
2022/11/13 01:01:05;;;;;;;;;;;4.90;99.90;;;;;;5096600;28;19970;-67
2022/11/13 01:03:30;;;;;;;;;;;4.90;99.90;;;;;;5096135;28;19908;-67
2022/11/13 01:05:55;;;;;;;;;;;4.90;99.90;;;;;;5096264;28;19908;-67
2022/11/13 01:08:21;;;;;;;;;;;5.00;99.90;;;;;;5096517;28;19946;-67
2022/11/13 01:10:47;;;;;;;;;;;5.00;99.90;;;;;;5096133;28;19912;-67
2022/11/13 01:13:13;;;;;;;;;;;4.90;99.90;;;;;;5096151;28;19919;-67
2022/11/13 01:15:40;;;;;;;;;;;5.00;99.90;;;;;;5096102;28;20366;-67
2022/11/13 01:18:06;;;;;;;;;;;5.00;99.90;;;;;;5077955;28;19966;-67
2022/11/13 01:20:31;;;;;;;;;;;5.00;99.90;;;;;;5096027;28;20377;-67
2022/11/13 01:22:57;;;;;;;;;;;5.00;99.90;;;;;;5096005;28;19944;-67
2022/11/13 01:25:22;;;;;;;;;;;5.00;99.90;;;;;;5095985;28;19908;-67
2022/11/13 01:27:48;;;;;;;;;;;4.90;99.90;;;;;;5095922;28;19909;-67
2022/11/13 01:30:13;;;;;;;;;;;4.90;99.90;;;;;;5095572;28;19924;-67
2022/11/13 01:32:39;;;;;;;;;;;4.90;99.90;;;;;;5096062;28;20068;-67
2022/11/13 01:35:04;;;;;;;;;;;4.90;99.90;;;;;;5095775;28;19908;-67
2022/11/13 01:37:30;;;;;;;;;;;4.90;99.90;;;;;;5095687;28;19957;-67
2022/11/13 01:39:55;;;;;;;;;;;4.80;99.90;;;;;;5095673;28;19908;-67
2022/11/13 01:42:21;;;;;;;;;;;4.80;99.90;;;;;;5077574;28;20262;-67
2022/11/13 01:44:48;;;;;;;;;;;4.80;99.90;;;;;;5095532;28;20006;-67
2022/11/13 01:47:14;;;;;;;;;;;4.70;99.90;;;;;;5095501;28;19908;-67
2022/11/13 01:49:41;;;;;;;;;;;4.70;99.90;;;;;;5095452;28;20372;-67
2022/11/13 01:52:10;;;;;;;;;;;4.70;99.90;;;;;;5095396;28;19912;-67
2022/11/13 01:54:37;;;;;;;;;;;4.70;99.90;;;;;;5095364;28;20357;-67
2022/11/13 01:57:03;;;;;;;;;;;4.60;99.90;;;;;;5095562;28;19908;-67
2022/11/13 01:59:31;;;;;;;;;;;4.60;99.90;;;;;;5095267;28;20391;-67
2022/11/13 02:01:57;;;;;;;;;;;4.60;99.90;;;;;;5095481;28;19908;-67
2022/11/13 02:04:23;;;;;;;;;;;4.60;99.90;;;;;;5095162;28;19915;-67
2022/11/13 02:06:51;;;;;;;;;;;4.70;99.90;;;;;;5095409;28;19999;-67
2022/11/13 02:09:19;;;;;;;;;;;4.70;99.90;;;;;;5095331;28;19957;-67
2022/11/13 02:11:45;;;;;;;;;;;4.90;99.90;;;;;;5076776;28;19913;-67
2022/11/13 02:14:11;;;;;;;;;;;4.90;99.90;;;;;;5094195;28;19915;-67
2022/11/13 02:16:37;;;;;;;;;;;4.90;99.90;;;;;;5095228;28;19908;-67
2022/11/13 02:19:06;;;;;;;;;;;4.90;99.90;;;;;;5095133;28;20286;-67
2022/11/13 02:21:40;;;;;;;;;;;4.80;99.90;;;;;;5094835;28;19908;-67
2022/11/13 02:24:26;;;;;;;;;;;4.80;99.90;;;;;;5076739;28;19908;-67
2022/11/13 02:26:52;;;;;;;;;;;4.70;99.90;;;;;;5094641;28;19994;-67
2022/11/13 02:29:17;;;;;;;;;;;4.70;99.90;;;;;;5094977;28;19947;-67
2022/11/13 02:31:42;;;;;;;;;;;4.70;99.90;;;;;;5094372;28;19927;-67
2022/11/13 02:34:08;;;;;;;;;;;4.50;99.90;;;;;;5094880;28;19911;-67
2022/11/13 02:36:34;;;;;;;;;;;4.50;99.90;;;;;;5094778;28;19987;-67
2022/11/13 02:39:02;;;;;;;;;;;4.40;99.90;;;;;;5076645;28;20327;-67
2022/11/13 02:41:27;;;;;;;;;;;4.30;99.90;;;;;;5094462;28;19957;-67
2022/11/13 02:43:53;;;;;;;;;;;4.20;99.90;;;;;;5094403;28;19908;-67
2022/11/13 02:46:18;;;;;;;;;;;4.20;99.90;;;;;;5094380;28;20002;-67
2022/11/13 02:48:44;;;;;;;;;;;4.10;99.90;;;;;;5094311;28;19915;-67
2022/11/13 02:51:09;;;;;;;;;;;4.10;99.90;;;;;;5094452;28;19920;-67
2022/11/13 02:53:35;;;;;;;;;;;4.10;99.90;;;;;;5094249;28;19920;-67
2022/11/13 02:56:00;;;;;;;;;;;4.00;99.90;;;;;;5076079;28;20366;-67
2022/11/13 02:58:26;;;;;;;;;;;4.00;99.90;;;;;;5094220;28;19908;-67
2022/11/13 03:00:51;;;;;;;;;;;3.90;99.90;;;;;;5076393;28;19916;-67
2022/11/13 03:03:16;;;;;;;;;;;3.90;99.90;;;;;;5094145;28;19916;-67
2022/11/13 03:05:42;;;;;;;;;;;3.90;99.90;;;;;;5094305;28;19915;-67
2022/11/13 03:08:07;;;;;;;;;;;3.90;99.90;;;;;;5094029;28;20366;-67
2022/11/13 03:10:33;;;;;;;;;;;3.80;99.90;;;;;;5093938;28;19951;-67
2022/11/13 03:12:58;;;;;;;;;;;3.80;99.90;;;;;;5093988;28;19973;-67
2022/11/13 03:15:24;;;;;;;;;;;3.80;99.90;;;;;;5094237;28;19909;-67
2022/11/13 03:17:49;;;;;;;;;;;3.70;99.90;;;;;;5094232;28;19937;-67
2022/11/13 03:20:15;;;;;;;;;;;3.70;99.90;;;;;;5093911;28;19915;-67
2022/11/13 03:22:40;;;;;;;;;;;3.70;99.90;;;;;;5094146;28;19962;-67
2022/11/13 03:25:06;;;;;;;;;;;3.70;99.90;;;;;;5093812;28;20002;-67
2022/11/13 03:27:32;;;;;;;;;;;3.70;99.90;;;;;;5093616;28;19908;-67
2022/11/13 03:29:57;;;;;;;;;;;3.60;99.90;;;;;;5093690;28;19923;-67
2022/11/13 03:32:23;;;;;;;;;;;3.60;99.90;;;;;;5094014;28;19970;-67
2022/11/13 03:34:48;;;;;;;;;;;3.60;99.90;;;;;;5093746;28;19912;-67
2022/11/13 03:37:14;;;;;;;;;;;3.60;99.90;;;;;;5093686;28;19915;-67
2022/11/13 03:39:39;;;;;;;;;;;3.60;99.90;;;;;;5093695;28;19963;-67
2022/11/13 03:42:05;;;;;;;;;;;3.50;99.90;;;;;;5093661;28;19912;-67
2022/11/13 03:44:30;;;;;;;;;;;3.50;99.90;;;;;;5093892;28;19908;-67
2022/11/13 03:46:55;;;;;;;;;;;3.50;99.90;;;;;;5093615;28;19985;-67
2022/11/13 03:49:21;;;;;;;;;;;3.50;99.90;;;;;;5093694;28;20357;-67
2022/11/13 03:51:46;;;;;;;;;;;3.40;99.90;;;;;;5093496;28;20361;-67
2022/11/13 03:54:12;;;;;;;;;;;3.40;99.90;;;;;;5093536;28;19908;-67
2022/11/13 03:56:37;;;;;;;;;;;3.40;99.90;;;;;;5075519;28;19908;-67
2022/11/13 03:59:03;;;;;;;;;;;3.40;99.90;;;;;;5093762;28;19908;-67
2022/11/13 04:01:28;;;;;;;;;;;3.40;99.90;;;;;;5093531;28;19916;-67
2022/11/13 04:03:54;;;;;;;;;;;3.30;99.90;;;;;;5093748;28;19909;-67
2022/11/13 04:06:20;;;;;;;;;;;3.30;99.90;;;;;;5093402;28;20427;-67
2022/11/13 04:08:46;;;;;;;;;;;3.30;99.90;;;;;;5093649;28;19915;-67
2022/11/13 04:11:12;;;;;;;;;;;3.20;99.90;;;;;;5093587;28;19912;-67
2022/11/13 04:13:37;;;;;;;;;;;3.20;99.90;;;;;;5093383;28;19958;-67
2022/11/13 04:16:03;;;;;;;;;;;3.10;99.90;;;;;;5093391;28;19908;-67
2022/11/13 04:18:29;;;;;;;;;;;3.10;99.90;;;;;;5093610;28;19954;-67
2022/11/13 04:20:58;;;;;;;;;;;3.00;99.90;;;;;;5093621;28;19908;-67
2022/11/13 04:23:24;;;;;;;;;;;3.00;99.90;;;;;;5093529;28;19908;-67
2022/11/13 04:25:49;;;;;;;;;;;2.90;99.90;;;;;;5093217;28;19958;-67
2022/11/13 04:28:15;;;;;;;;;;;3.00;99.90;;;;;;5075179;28;19908;-67
2022/11/13 04:30:40;;;;;;;;;;;2.90;99.90;;;;;;5093051;28;19977;-67
2022/11/13 04:33:06;;;;;;;;;;;2.90;99.90;;;;;;5093180;28;20003;-67
2022/11/13 04:35:31;;;;;;;;;;;2.90;99.90;;;;;;5093417;28;20381;-67
2022/11/13 04:37:57;;;;;;;;;;;3.00;99.90;;;;;;5094208;28;20010;-67
2022/11/13 04:40:22;;;;;;;;;;;3.00;99.90;;;;;;5097071;28;19915;-67
2022/11/13 04:42:48;;;;;;;;;;;2.90;99.90;;;;;;5096779;28;20381;-67
2022/11/13 04:45:15;;;;;;;;;;;2.90;99.90;;;;;;5096964;28;19915;-67
2022/11/13 04:47:41;;;;;;;;;;;2.90;99.90;;;;;;5096948;28;19915;-67
2022/11/13 04:50:07;;;;;;;;;;;3.00;99.90;;;;;;5096538;28;19908;-67
2022/11/13 04:52:32;;;;;;;;;;;3.10;99.90;;;;;;5096823;28;20007;-67
2022/11/13 04:54:58;;;;;;;;;;;3.30;99.90;;;;;;5096587;28;19958;-67
2022/11/13 04:57:23;;;;;;;;;;;3.30;99.90;;;;;;5096534;28;19908;-67
2022/11/13 04:59:49;;;;;;;;;;;3.30;99.90;;;;;;5096468;28;19966;-67
2022/11/13 05:02:15;;;;;;;;;;;3.30;99.90;;;;;;5096424;28;19912;-67
2022/11/13 05:04:40;;;;;;;;;;;3.20;99.90;;;;;;5096398;28;19908;-67
2022/11/13 05:07:05;;;;;;;;;;;3.10;99.90;;;;;;5096354;28;19914;-67
2022/11/13 05:09:31;;;;;;;;;;;3.10;99.90;;;;;;5078205;28;19908;-67
2022/11/13 05:11:56;;;;;;;;;;;3.10;99.90;;;;;;5096450;28;19958;-67
2022/11/13 05:14:22;;;;;;;;;;;3.10;99.90;;;;;;5096212;28;19915;-67
2022/11/13 05:16:49;;;;;;;;;;;3.10;99.90;;;;;;5096371;28;20384;-67
2022/11/13 05:19:15;;;;;;;;;;;3.10;99.90;;;;;;5096020;28;19993;-67
2022/11/13 05:21:40;;;;;;;;;;;3.00;99.90;;;;;;5095985;28;20277;-67
2022/11/13 05:24:08;;;;;;;;;;;3.10;99.90;;;;;;5096010;28;19908;-67
2022/11/13 05:26:35;;;;;;;;;;;3.10;99.90;;;;;;5096187;28;20365;-67
2022/11/13 05:29:01;;;;;;;;;;;3.10;99.90;;;;;;5095849;28;19915;-67
2022/11/13 05:31:41;;;;;;;;;;;3.00;99.90;;;;;;5095641;28;19920;-67
2022/11/13 05:34:06;;;;;;;;;;;3.00;99.90;;;;;;5095794;28;19908;-67
2022/11/13 05:36:32;;;;;;;;;;;3.00;99.90;;;;;;5095717;28;20032;-67
2022/11/13 05:38:57;;;;;;;;;;;2.90;99.90;;;;;;5095944;28;20358;-67
2022/11/13 05:41:23;;;;;;;;;;;2.90;99.90;;;;;;5095792;28;19953;-67
2022/11/13 05:43:49;;;;;;;;;;;2.90;99.90;;;;;;5096052;28;20345;-67
2022/11/13 05:46:17;;;;;;;;;;;2.90;99.90;;;;;;5095801;28;19908;-67
2022/11/13 05:48:43;;;;;;;;;;;2.80;99.90;;;;;;5095517;28;19908;-67
2022/11/13 05:51:10;;;;;;;;;;;2.80;99.90;;;;;;5095370;28;19935;-67
2022/11/13 05:53:36;;;;;;;;;;;2.80;99.90;;;;;;5095412;28;20386;-67
2022/11/13 05:56:03;;;;;;;;;;;2.70;99.90;;;;;;5095596;28;19998;-67
2022/11/13 05:58:28;;;;;;;;;;;2.70;99.90;;;;;;5095581;28;20247;-67
2022/11/13 06:01:03;;;;;;;;;;;2.60;99.90;;;;;;5095530;28;19915;-67
2022/11/13 06:03:29;;;;;;;;;;;2.60;99.90;;;;;;5095228;28;19993;-67
2022/11/13 06:05:54;;;;;;;;;;;2.50;99.90;;;;;;5095159;28;19947;-67
2022/11/13 06:08:20;;;;;;;;;;;2.50;99.90;;;;;;5095120;28;19908;-67
2022/11/13 06:10:45;;;;;;;;;;;2.50;99.90;;;;;;5095001;28;19920;-67
2022/11/13 06:13:11;;;;;;;;;;;2.50;99.90;;;;;;5095291;28;19943;-67
2022/11/13 06:15:36;;;;;;;;;;;2.50;99.90;;;;;;5095002;28;19930;-67
2022/11/13 06:18:01;;;;;;;;;;;2.60;99.90;;;;;;5094908;28;19916;-67
2022/11/13 06:20:27;;;;;;;;;;;2.70;99.90;;;;;;5094881;28;19908;-67
2022/11/13 06:22:52;;;;;;;;;;;2.70;99.90;;;;;;5094860;28;19908;-67
2022/11/13 06:25:18;;;;;;;;;;;2.70;99.90;;;;;;5094803;28;19999;-67
2022/11/13 06:27:43;;;;;;;;;;;2.70;99.90;;;;;;5095032;28;19908;-67
2022/11/13 06:30:09;;;;;;;;;;;2.70;99.90;;;;;;5076324;28;19998;-67
2022/11/13 06:32:34;;;;;;;;;;;2.70;99.90;;;;;;5094948;28;19956;-67
2022/11/13 06:35:00;;;;;;;;;;;2.70;99.90;;;;;;5094629;28;20366;-67
2022/11/13 06:37:25;;;;;;;;;;;2.70;99.90;;;;;;5094668;28;20357;-67
2022/11/13 06:39:51;;;;;;;;;;;2.70;99.90;;;;;;5094518;28;19908;-67
2022/11/13 06:42:16;;;;;;;;;;;2.70;99.90;;;;;;5094479;28;19908;-67
2022/11/13 06:44:41;;;;;;;;;;;2.80;99.90;;;;;;5094422;28;19908;-67
2022/11/13 06:47:08;;;;;;;;;;;2.80;99.90;;;;;;5094678;28;19991;-67
2022/11/13 06:49:33;;;;;;;;;;;2.80;99.90;;;;;;5094409;28;19999;-67
2022/11/13 06:51:59;;;;;;;;;;;2.80;99.90;;;;;;5094325;28;20393;-67
2022/11/13 06:54:24;;;;;;;;;;;2.80;99.90;;;;;;5094306;28;19984;-67
2022/11/13 06:56:50;;;;;;;;;;;2.80;99.90;;;;;;5094550;28;19973;-67
2022/11/13 06:59:15;;;;;;;;;;;2.90;99.90;;;;;;5094200;28;19955;-67
2022/11/13 07:01:40;;;;;;;;;;;2.90;99.90;;;;;;5094039;28;19915;-67
2022/11/13 07:04:10;;;;;;;;;;;2.90;99.90;;;;;;5094121;28;19915;-67
2022/11/13 07:06:35;;;;;;;;;;;3.00;99.90;;;;;;5094093;28;19912;-67
2022/11/13 07:09:01;;;;;;;;;;;3.10;99.90;;;;;;5075953;28;19995;-67
2022/11/13 07:11:26;;;;;;;;;;;3.10;99.90;;;;;;5094349;28;19919;-67
2022/11/13 07:13:52;;;;;;;;;;;3.10;99.90;;;;;;5093961;28;20358;-67
2022/11/13 07:16:17;;;;;;;;;;;3.20;99.90;;;;;;5093854;28;19912;-67
2022/11/13 07:18:47;;;;;;;;;;;3.20;99.90;;;;;;5093912;28;19908;-67
2022/11/13 07:21:13;;;;;;;;;;;3.30;99.90;;;;;;5093859;28;19958;-67
2022/11/13 07:23:41;;;;;;;;;;;3.40;99.90;;;;;;5093867;28;19908;-67
2022/11/13 07:26:08;;;;;;;;;;;3.70;99.90;;;;;;5094129;28;20384;-66
2022/11/13 07:28:33;;;;;;;;;;;4.50;99.90;;;;;;5075681;28;19951;-67
2022/11/13 07:30:59;;;;;;;;;;;4.60;99.90;;;;;;5093544;28;19963;-67
2022/11/13 07:33:25;;;;;;;;;;;4.70;99.90;;;;;;5075750;28;20366;-67
2022/11/13 07:35:54;;;;;;;;;;;5.10;99.90;;;;;;5094007;28;19908;-67
2022/11/13 07:38:20;;;;;;;;;;;5.30;99.90;;;;;;5093708;28;19919;-67
2022/11/13 07:40:45;;;;;;;;;;;5.30;99.90;;;;;;5093957;28;20267;-67
2022/11/13 07:43:11;;;;;;;;;;;5.60;99.90;;;;;;5093683;28;19916;-67
2022/11/13 07:45:36;;;;;;;;;;;6.30;99.90;;;;;;5093601;28;20405;-67
2022/11/13 07:48:02;;;;;;;;;;;6.30;99.90;;;;;;5093947;28;19909;-67
2022/11/13 07:50:29;;;;;;;;;;;6.20;99.90;;;;;;5093793;28;20372;-67
2022/11/13 07:52:55;;;;;;;;;;;6.70;99.90;;;;;;5093532;28;19908;-67
2022/11/13 07:55:21;;;;;;;;;;;7.30;99.90;;;;;;5093788;28;19908;-67
2022/11/13 07:57:46;;;;;;;;;;;8.60;99.90;;;;;;5093528;28;19908;-67
2022/11/13 08:00:12;;;;;;;;;;;9.90;99.90;;;;;;5093511;28;20002;-67
2022/11/13 08:02:37;;;;;;;;;;;11.00;99.90;;;;;;5093473;28;19909;-68
2022/11/13 08:05:03;;;;;;;;;;;11.40;99.90;;;;;;5093447;28;20026;-68
2022/11/13 08:07:28;;;;;;;;;;;11.60;99.90;;;;;;5093468;28;19912;-68
2022/11/13 08:09:54;;;;;;;;;;;11.40;99.90;;;;;;5093669;28;19959;-68
2022/11/13 08:12:19;;;;;;;;;;;11.40;99.90;;;;;;5093378;28;19916;-68
2022/11/13 08:14:44;;;;;;;;;;;11.90;99.90;;;;;;5097340;28;19915;-68
2022/11/13 08:17:10;;;;;;;;;;;12.00;99.90;;;;;;5097315;28;19955;-68
2022/11/13 08:19:35;;;;;;;;;;;12.00;99.90;;;;;;5097516;28;19912;-68
2022/11/13 08:22:01;;;;;;;;;;;12.30;99.90;;;;;;5097431;28;19908;-68
2022/11/13 08:24:26;;;;;;;;;;;12.00;99.90;;;;;;5097242;28;20387;-68
2022/11/13 08:26:52;;;;;;;;;;;11.80;99.90;;;;;;5097078;28;20324;-68
2022/11/13 08:29:17;;;;;;;;;;;11.60;99.90;;;;;;5097050;28;19908;-67
2022/11/13 08:31:43;;;;;;;;;;;11.60;99.90;;;;;;5096796;28;19920;-68
2022/11/13 08:34:08;;;;;;;;;;;11.70;99.90;;;;;;5096942;28;19915;-68
2022/11/13 08:36:34;;;;;;;;;;;12.20;99.90;;;;;;5097167;28;19915;-68
2022/11/13 08:38:59;;;;;;;;;;;12.90;99.90;;;;;;5097280;28;20006;-67
2022/11/13 08:41:24;;;;;;;;;;;13.40;99.90;;;;;;5097111;28;19908;-68
2022/11/13 08:43:50;;;;;;;;;;;13.70;99.90;;;;;;5096759;28;19954;-68
2022/11/13 08:46:15;;;;;;;;;;;14.40;99.90;;;;;;5096691;28;19908;-68
2022/11/13 08:48:41;;;;;;;;;;;15.00;99.90;;;;;;5096617;28;19908;-68
2022/11/13 08:51:06;;;;;;;;;;;15.50;99.90;;;;;;5096856;28;19937;-68
2022/11/13 08:53:32;;;;;;;;;;;15.70;99.90;;;;;;5096567;28;19976;-68
2022/11/13 08:55:59;;;;;;;;;;;16.10;99.90;;;;;;5096849;28;19908;-68
2022/11/13 08:58:25;;;;;;;;;;;16.00;99.90;;;;;;5096776;28;20057;-68
2022/11/13 09:00:50;;;;;;;;;;;16.80;99.90;;;;;;5096460;28;19959;-68
2022/11/13 09:03:16;;;;;;;;;;;17.10;99.90;;;;;;5096382;28;19908;-68
2022/11/13 09:05:41;;;;;;;;;;;17.10;99.90;;;;;;5096388;28;19908;-68
2022/11/13 09:08:06;;;;;;;;;;;17.70;98.90;;;;;;5096328;28;19908;-68
2022/11/13 09:10:32;;;;;;;;;;;18.00;97.10;;;;;;5078171;28;19919;-68
2022/11/13 09:13:04;;;;;;;;;;;17.60;97.30;;;;;;5096504;28;19908;-68
2022/11/13 09:15:30;;;;;;;;;;;17.60;97.40;;;;;;5096442;28;19954;-68
2022/11/13 09:17:57;;;;;;;;;;;17.80;97.30;;;;;;5096399;28;20327;-68
2022/11/13 09:20:23;;;;;;;;;;;18.10;96.00;;;;;;5096087;28;19908;-68
2022/11/13 09:22:48;;;;;;;;;;;18.60;93.80;;;;;;5096277;28;20282;-68
2022/11/13 09:25:14;;;;;;;;;;;18.80;94.10;;;;;;5095656;28;19909;-68
2022/11/13 09:27:39;;;;;;;;;;;18.90;92.80;;;;;;5096199;28;19916;-68
2022/11/13 09:30:05;;;;;;;;;;;19.30;91.60;;;;;;5093128;28;19916;-68
2022/11/13 09:32:30;;;;;;;;;;;19.20;91.50;;;;;;5095857;28;19919;-68
2022/11/13 09:34:56;;;;;;;;;;;19.30;91.40;;;;;;5096230;28;19908;-68
2022/11/13 09:37:21;;;;;;;;;;;19.00;92.00;;;;;;5096011;28;19908;-68
2022/11/13 09:39:47;;;;;;;;;;;19.60;92.10;;;;;;5095681;28;19912;-68
2022/11/13 09:42:16;;;;;;;;;;;19.80;91.00;;;;;;5095655;28;20003;-68
2022/11/13 09:44:47;;;;;;;;;;;19.60;90.20;;;;;;5095569;28;20323;-68
2022/11/13 09:47:16;;;;;;;;;;;20.00;89.10;;;;;;5095532;28;19931;-68
2022/11/13 09:49:44;;;;;;;;;;;19.60;89.90;;;;;;5095735;28;19915;-68
2022/11/13 09:52:12;;;;;;;;;;;20.10;88.40;;;;;;5095366;28;19978;-68
2022/11/13 09:54:37;;;;;;;;;;;20.00;87.50;;;;;;5095660;28;19912;-68
2022/11/13 10:00:03;;;;;;;;;;;19.70;88.30;;;;;;5091370;28;19913;-67
2022/11/13 10:02:48;;;;;;;;;;;19.60;89.90;;;;;;5091186;28;19920;-67
2022/11/13 10:05:34;;;;;;;;;;;20.20;85.40;;;;;;5091078;28;20358;-67
2022/11/13 10:08:06;;;;;;;;;;;21.10;81.60;;;;;;5091143;28;20282;-67
2022/11/13 10:10:48;;;;;;;;;;;20.90;81.80;;;;;;5091009;28;19908;-67
2022/11/13 10:13:20;;;;;;;;;;;20.60;80.30;;;;;;5091211;28;19915;-67
2022/11/13 10:15:48;;;;;;;;;;;20.20;82.10;;;;;;5090937;28;19908;-67
2022/11/13 10:18:17;;;;;;;;;;;20.00;82.30;;;;;;5091042;28;19912;-66
2022/11/13 10:20:47;;;;;;;;;;;19.90;81.50;;;;;;5124052;28;20313;-66
2022/11/13 10:23:17;;;;;;;;;;;20.00;80.70;;;;;;5091054;28;20303;-67
2022/11/13 10:25:43;;;;;;;;;;;20.30;81.40;;;;;;5090957;28;19909;-67
2022/11/13 10:28:11;;;;;;;;;;;20.70;80.30;;;;;;5090697;28;19912;-67
2022/11/13 10:30:38;;;;;;;;;;;20.40;81.20;;;;;;5090605;28;19997;-67
2022/11/13 10:33:05;;;;;;;;;;;20.60;80.70;;;;;;5090862;28;19908;-67
2022/11/13 10:38:23;;;;;;;;;;;21.50;79.60;;;;;;5091300;27;19912;-68
2022/11/13 10:40:49;;;;;;;;;;;20.50;81.30;;;;;;5124127;28;19919;-68
2022/11/13 10:43:19;;;;;;;;;;;21.00;81.10;;;;;;5091398;28;19909;-68
2022/11/13 10:45:53;;;;;;;;;;;20.90;81.90;;;;;;5091348;28;19909;-68
2022/11/13 10:48:20;;;;;;;;;;;20.90;81.20;;;;;;5091002;28;19912;-68
2022/11/13 10:50:54;;;;;;;;;;;21.90;78.80;;;;;;5090986;28;20392;-68
2022/11/13 10:53:20;;;;;;;;;;;21.50;80.00;;;;;;5090948;28;19909;-68
2022/11/13 10:55:49;;;;;;;;;;;22.00;80.30;;;;;;5091077;28;20019;-68
2022/11/13 10:58:16;;;;;;;;;;;21.50;79.70;;;;;;5090867;28;20432;-68
2022/11/13 11:00:46;;;;;;;;;;;21.70;80.80;;;;;;5091064;28;20384;-68
2022/11/13 11:03:16;;;;;;;;;;;21.70;79.40;;;;;;5091038;28;19950;-68
2022/11/13 11:05:50;;;;;;;;;;;21.60;80.30;;;;;;5090680;28;19915;-68
2022/11/13 11:08:24;;;;;;;;;;;21.20;81.10;;;;;;5090562;28;20396;-68
2022/11/13 11:13:44;;;;;;;;;;;19.70;84.60;;;;;;5090407;28;19919;-68
2022/11/13 11:16:13;;;;;;;;;;;18.80;89.30;;;;;;5090433;28;19912;-68
2022/11/13 11:18:43;;;;;;;;;;;18.80;90.50;;;;;;5090748;28;20406;-68
2022/11/13 11:21:11;;;;;;;;;;;18.80;90.70;;;;;;5090450;28;19915;-68
2022/11/13 11:23:57;;;;;;;;;;;18.80;90.40;;;;;;5090327;28;19909;-68
2022/11/13 11:26:26;;;;;;;;;;;18.50;90.70;;;;;;5088991;28;19916;-67
2022/11/13 11:28:59;;;;;;;;;;;18.70;91.40;;;;;;5090320;28;20372;-67
2022/11/13 11:31:26;;;;;;;;;;;18.80;90.70;;;;;;5123392;28;19957;-67
2022/11/13 11:34:11;;;;;;;;;;;18.60;91.30;;;;;;5090436;28;19912;-67
2022/11/13 11:36:42;;;;;;;;;;;18.30;91.90;;;;;;5097447;28;19986;-67
2022/11/13 11:39:24;;;;;;;;;;;17.80;92.70;;;;;;5110395;28;19908;-67
2022/11/13 11:42:10;;;;;;;;;;;17.80;92.90;;;;;;5110390;28;19915;-67
2022/11/13 11:44:41;;;;;;;;;;;18.10;93.60;;;;;;5110271;28;19961;-67
2022/11/13 11:47:12;;;;;;;;;;;18.00;93.10;;;;;;5110199;28;19908;-67
2022/11/13 11:49:38;;;;;;;;;;;18.10;93.70;;;;;;5096153;28;20293;-67
2022/11/13 11:52:13;;;;;;;;;;;18.00;94.20;;;;;;5078517;28;19913;-67
2022/11/13 11:54:41;;;;;;;;;;;18.00;94.50;;;;;;5096595;28;19999;-67
2022/11/13 11:57:26;;;;;;;;;;;18.00;94.70;;;;;;5096387;28;19916;-68
2022/11/13 12:00:11;;;;;;;;;;;18.20;94.80;;;;;;5096341;28;19931;-67
2022/11/13 12:02:57;;;;;;;;;;;18.20;94.60;;;;;;5096155;28;19947;-68
2022/11/13 12:05:26;;;;;;;;;;;18.30;94.80;;;;;;5096191;28;20277;-67
2022/11/13 12:08:11;;;;;;;;;;;18.30;95.80;;;;;;5096584;28;20010;-67
2022/11/13 12:10:43;;;;;;;;;;;18.40;95.50;;;;;;5096199;28;19914;-67
2022/11/13 12:13:17;;;;;;;;;;;18.40;95.50;;;;;;5096210;28;19908;-67
2022/11/13 12:15:47;;;;;;;;;;;18.40;96.00;;;;;;5096235;28;20286;-67
2022/11/13 12:18:35;;;;;;;;;;;18.30;95.60;;;;;;5096141;28;20019;-67
2022/11/13 12:21:20;;;;;;;;;;;18.30;95.70;;;;;;5096046;28;20400;-67
2022/11/13 12:24:00;;;;;;;;;;;18.40;95.70;;;;;;5095768;28;20286;-67
2022/11/13 12:26:45;;;;;;;;;;;18.50;96.80;;;;;;5096158;28;19916;-67
2022/11/13 12:32:04;;;;;;;;;;;18.40;95.80;;;;;;5091363;27;20282;-67
2022/11/13 12:37:12;;;;;;;;;;;18.70;96.30;;;;;;5091310;27;19912;-67
2022/11/13 12:39:42;;;;;;;;;;;18.80;95.00;;;;;;5091479;28;19920;-67
2022/11/13 12:42:17;;;;;;;;;;;18.80;93.20;;;;;;5091405;28;19961;-67
2022/11/13 12:45:02;;;;;;;;;;;18.70;93.20;;;;;;5091103;28;19999;-67
2022/11/13 12:47:27;;;;;;;;;;;18.70;94.70;;;;;;5090999;28;19909;-67
2022/11/13 12:50:13;;;;;;;;;;;18.20;99.90;;;;;;5090952;28;19934;-67
2022/11/13 12:52:38;;;;;;;;;;;18.10;99.90;;;;;;5090940;28;20422;-67
2022/11/13 12:55:05;;;;;;;;;;;17.90;99.90;;;;;;5090904;28;20054;-67
2022/11/13 12:57:31;;;;;;;;;;;17.90;99.90;;;;;;5090895;28;19916;-67
2022/11/13 12:59:59;;;;;;;;;;;17.80;99.90;;;;;;5090764;28;19912;-67
2022/11/13 13:02:44;;;;;;;;;;;17.90;99.90;;;;;;5090735;28;20389;-67
2022/11/13 13:05:30;;;;;;;;;;;17.90;99.90;;;;;;5090731;28;20286;-67
2022/11/13 13:11:01;;;;;;;;;;;18.00;99.90;;;;;;5051075;28;20375;-66
2022/11/13 13:13:47;;;;;;;;;;;17.90;99.90;;;;;;5050963;28;19913;-66
2022/11/13 13:16:19;;;;;;;;;;;18.00;99.90;;;;;;5050934;28;20271;-66
2022/11/13 13:18:44;;;;;;;;;;;18.10;99.90;;;;;;5050866;28;19909;-66
2022/11/13 13:21:11;;;;;;;;;;;18.20;99.90;;;;;;5050850;28;19916;-67
2022/11/13 13:23:38;;;;;;;;;;;18.30;99.90;;;;;;5050963;28;19909;-67
2022/11/13 13:26:13;;;;;;;;;;;18.20;97.70;;;;;;5050976;28;19909;-66
2022/11/13 13:28:40;;;;;;;;;;;18.30;95.30;;;;;;5050622;28;19913;-66
2022/11/13 13:31:24;;;;;;;;;;;18.30;93.50;;;;;;5050591;28;20012;-66
2022/11/13 13:33:59;;;;;;;;;;;18.20;93.70;;;;;;5050529;28;19909;-66
2022/11/13 13:36:44;;;;;;;;;;;18.10;93.80;;;;;;5083092;28;19925;-66
2022/11/13 13:39:17;;;;;;;;;;;18.10;93.90;;;;;;5050689;28;20066;-67
2022/11/13 13:41:53;;;;;;;;;;;18.00;93.70;;;;;;5050679;28;19913;-66
2022/11/13 13:44:38;;;;;;;;;;;18.00;94.10;;;;;;5082965;28;20007;-66
2022/11/13 13:47:09;;;;;;;;;;;17.90;94.30;;;;;;5050341;28;19909;-66
2022/11/13 13:49:35;;;;;;;;;;;17.80;93.90;;;;;;5050443;28;19913;-66
2022/11/13 13:52:01;;;;;;;;;;;17.80;94.20;;;;;;5050292;28;20379;-66
2022/11/13 13:54:29;;;;;;;;;;;17.70;93.20;;;;;;5050213;28;19909;-66
2022/11/13 13:56:55;;;;;;;;;;;17.70;92.80;;;;;;5050127;28;20374;-66
2022/11/13 13:59:30;;;;;;;;;;;17.70;93.60;;;;;;5050412;28;20012;-66
2022/11/13 14:01:58;;;;;;;;;;;17.60;93.00;;;;;;5050086;28;19969;-66
2022/11/13 14:04:25;;;;;;;;;;;17.50;92.80;;;;;;5050307;28;19916;-66
2022/11/13 14:06:53;;;;;;;;;;;17.50;91.90;;;;;;5050023;28;19909;-66
2022/11/13 14:09:20;;;;;;;;;;;17.40;91.50;;;;;;5049816;28;20397;-66
2022/11/13 14:11:47;;;;;;;;;;;17.30;91.30;;;;;;5049889;28;19955;-66
2022/11/13 14:14:17;;;;;;;;;;;17.20;91.20;;;;;;5050122;28;19913;-66
2022/11/13 14:16:59;;;;;;;;;;;17.20;90.90;;;;;;5050055;28;19938;-66
2022/11/13 14:19:25;;;;;;;;;;;17.20;90.70;;;;;;5049735;28;19910;-66
2022/11/13 14:21:52;;;;;;;;;;;17.20;90.40;;;;;;5037577;28;19955;-66
2022/11/13 14:24:22;;;;;;;;;;;17.20;90.30;;;;;;5036476;28;20426;-66
2022/11/13 14:26:49;;;;;;;;;;;16.90;91.10;;;;;;5036610;28;19916;-66
2022/11/13 14:29:20;;;;;;;;;;;17.00;90.40;;;;;;5036168;28;19920;-66
2022/11/13 14:31:45;;;;;;;;;;;17.00;90.80;;;;;;5036483;28;20420;-66
2022/11/13 14:34:15;;;;;;;;;;;16.90;91.20;;;;;;5036282;28;19910;-66
2022/11/13 14:36:40;;;;;;;;;;;16.80;91.30;;;;;;5036112;28;19909;-66
2022/11/13 14:39:13;;;;;;;;;;;16.80;91.40;;;;;;5036086;28;19963;-66
2022/11/13 14:41:44;;;;;;;;;;;16.70;90.90;;;;;;5068120;28;19909;-66
2022/11/13 14:44:10;;;;;;;;;;;16.70;91.70;;;;;;5036033;28;19913;-66